createdAt,value
2023-02-04T00:01:41.623Z,8.28
2023-02-04T00:03:58.891Z,8.23
2023-02-04T00:06:15.979Z,8.22
2023-02-04T00:08:32.912Z,8.24
2023-02-04T00:10:53.320Z,8.17
2023-02-04T00:13:10.947Z,8.18
2023-02-04T00:15:27.889Z,8.14
2023-02-04T00:17:44.855Z,8.10
2023-02-04T00:20:02.879Z,8.09
2023-02-04T00:22:20.229Z,8.07
2023-02-04T00:24:38.497Z,8.02
2023-02-04T00:26:55.463Z,8.00
2023-02-04T00:29:13.534Z,8.00
2023-02-04T00:31:30.932Z,7.95
2023-02-04T00:33:48.359Z,7.99
2023-02-04T00:36:08.150Z,7.97
2023-02-04T00:38:27.575Z,8.07
2023-02-04T00:40:44.490Z,8.08
2023-02-04T00:43:01.422Z,8.02
2023-02-04T00:45:18.409Z,8.15
2023-02-04T00:47:36.456Z,8.11
2023-02-04T00:49:53.537Z,8.18
2023-02-04T00:52:13.994Z,8.15
2023-02-04T00:54:31.029Z,8.06
2023-02-04T00:56:47.958Z,7.95
2023-02-04T00:59:05.434Z,7.89
2023-02-04T01:01:22.750Z,7.90
2023-02-04T01:03:40.069Z,7.85
2023-02-04T01:05:57.315Z,7.75
2023-02-04T01:08:14.566Z,7.72
2023-02-04T01:10:32.245Z,7.71
2023-02-04T01:12:50.958Z,7.59
2023-02-04T01:15:08.076Z,7.53
2023-02-04T01:17:26.089Z,7.47
2023-02-04T01:19:43.241Z,7.58
2023-02-04T01:22:00.341Z,7.58
2023-02-04T01:24:17.416Z,7.48
2023-02-04T01:26:34.420Z,7.49
2023-02-04T01:28:51.703Z,7.57
2023-02-04T01:31:08.753Z,7.47
2023-02-04T01:33:26.572Z,7.36
2023-02-04T01:35:43.876Z,7.42
2023-02-04T01:38:01.289Z,7.38
2023-02-04T01:40:18.360Z,7.42
2023-02-04T01:42:35.379Z,7.32
2023-02-04T01:44:52.270Z,7.31
2023-02-04T01:47:10.036Z,7.27
2023-02-04T01:49:27.095Z,7.28
2023-02-04T01:51:44.297Z,7.24
2023-02-04T01:54:02.407Z,7.21
2023-02-04T01:56:19.900Z,7.24
2023-02-04T01:58:37.534Z,7.31
2023-02-04T02:00:54.974Z,7.24
2023-02-04T02:03:12.423Z,7.24
2023-02-04T02:05:29.516Z,7.19
2023-02-04T02:07:46.755Z,7.19
2023-02-04T02:10:03.894Z,7.17
2023-02-04T02:12:21.147Z,7.17
2023-02-04T02:14:38.490Z,7.15
2023-02-04T02:16:55.871Z,7.14
2023-02-04T02:19:13.216Z,7.13
2023-02-04T02:21:31.593Z,7.12
2023-02-04T02:23:48.566Z,7.11
2023-02-04T02:26:08.257Z,7.10
2023-02-04T02:28:25.550Z,7.10
2023-02-04T02:30:42.949Z,7.09
2023-02-04T02:33:00.121Z,7.09
2023-02-04T02:35:17.402Z,7.12
2023-02-04T02:37:35.431Z,7.10
2023-02-04T02:39:52.509Z,7.14
2023-02-04T02:42:09.672Z,7.09
2023-02-04T02:44:27.707Z,7.07
2023-02-04T02:46:44.726Z,7.04
2023-02-04T02:49:02.074Z,7.04
2023-02-04T02:51:19.380Z,7.06
2023-02-04T02:53:36.377Z,7.02
2023-02-04T02:55:53.677Z,7.02
2023-02-04T02:58:10.746Z,7.01
2023-02-04T03:00:27.930Z,6.97
2023-02-04T03:02:46.287Z,6.97
2023-02-04T03:05:03.338Z,6.95
2023-02-04T03:07:20.590Z,6.97
2023-02-04T03:09:37.712Z,6.95
2023-02-04T03:11:55.725Z,6.96
2023-02-04T03:14:13.044Z,6.98
2023-02-04T03:16:30.373Z,6.97
2023-02-04T03:18:47.709Z,6.93
2023-02-04T03:21:04.779Z,6.93
2023-02-04T03:23:21.840Z,6.95
2023-02-04T03:25:39.225Z,7.00
2023-02-04T03:27:56.534Z,6.91
2023-02-04T03:30:13.959Z,6.99
2023-02-04T03:32:30.989Z,6.95
2023-02-04T03:34:49.323Z,6.91
2023-02-04T03:37:06.455Z,6.89
2023-02-04T03:39:23.733Z,6.89
2023-02-04T03:41:41.778Z,6.89
2023-02-04T03:43:58.712Z,6.87
2023-02-04T03:46:16.041Z,6.87
2023-02-04T03:48:33.479Z,6.87
2023-02-04T03:50:50.766Z,6.86
2023-02-04T03:53:08.062Z,6.84
2023-02-04T03:55:25.434Z,6.81
2023-02-04T03:57:42.536Z,6.79
2023-02-04T03:59:59.810Z,6.80
2023-02-04T04:02:17.046Z,6.79
2023-02-04T04:04:35.367Z,6.82
2023-02-04T04:06:52.709Z,6.83
2023-02-04T04:09:10.711Z,6.81
2023-02-04T04:11:27.753Z,6.79
2023-02-04T04:13:45.088Z,6.77
2023-02-04T04:16:02.215Z,6.76
2023-02-04T04:18:19.606Z,6.82
2023-02-04T04:20:36.643Z,6.78
2023-02-04T04:22:54.538Z,6.76
2023-02-04T04:25:11.838Z,6.76
2023-02-04T04:27:29.089Z,6.78
2023-02-04T04:29:47.125Z,6.77
2023-02-04T04:32:04.069Z,6.74
2023-02-04T04:34:21.428Z,6.75
2023-02-04T04:36:38.500Z,6.74
2023-02-04T04:38:55.491Z,6.74
2023-02-04T04:41:12.820Z,6.73
2023-02-04T04:43:30.829Z,6.72
2023-02-04T04:45:48.138Z,6.71
2023-02-04T04:48:05.136Z,6.70
2023-02-04T04:50:22.057Z,6.66
2023-02-04T04:52:39.105Z,6.67
2023-02-04T04:54:56.108Z,6.71
2023-02-04T04:57:14.401Z,6.69
2023-02-04T04:59:31.675Z,6.66
2023-02-04T05:01:48.974Z,6.66
2023-02-04T05:04:06.047Z,6.70
2023-02-04T05:06:23.137Z,6.66
2023-02-04T05:08:40.384Z,6.64
2023-02-04T05:10:57.763Z,6.65
2023-02-04T05:13:15.713Z,6.62
2023-02-04T05:15:32.659Z,6.61
2023-02-04T05:17:49.754Z,6.64
2023-02-04T05:20:06.991Z,6.62
2023-02-04T05:22:24.228Z,6.61
2023-02-04T05:24:41.195Z,6.57
2023-02-04T05:26:58.536Z,6.55
2023-02-04T05:29:15.642Z,6.53
2023-02-04T05:31:33.849Z,6.51
2023-02-04T05:33:50.885Z,6.47
2023-02-04T05:36:07.926Z,6.46
2023-02-04T05:38:25.297Z,6.42
2023-02-04T05:40:43.296Z,6.40
2023-02-04T05:43:00.568Z,6.39
2023-02-04T05:45:18.044Z,6.32
2023-02-04T05:47:35.873Z,6.31
2023-02-04T05:49:55.438Z,6.30
2023-02-04T05:52:12.690Z,6.26
2023-02-04T05:54:29.977Z,6.26
2023-02-04T05:56:47.313Z,6.23
2023-02-04T05:59:05.218Z,6.22
2023-02-04T06:01:22.226Z,6.21
2023-02-04T06:03:39.317Z,6.19
2023-02-04T06:05:56.405Z,6.20
2023-02-04T06:08:13.397Z,6.19
2023-02-04T06:10:31.060Z,6.19
2023-02-04T06:12:48.610Z,6.19
2023-02-04T06:15:05.523Z,6.18
2023-02-04T06:17:22.497Z,6.17
2023-02-04T06:19:40.546Z,6.18
2023-02-04T06:21:57.888Z,6.17
2023-02-04T06:24:14.983Z,6.16
2023-02-04T06:26:32.035Z,6.13
2023-02-04T06:28:49.137Z,6.11
2023-02-04T06:31:06.318Z,6.09
2023-02-04T06:33:23.409Z,6.08
2023-02-04T06:35:40.350Z,6.07
2023-02-04T06:37:57.242Z,6.06
2023-02-04T06:40:14.293Z,6.04
2023-02-04T06:42:31.289Z,6.03
2023-02-04T06:44:48.578Z,6.10
2023-02-04T06:47:06.793Z,6.10
2023-02-04T06:49:23.867Z,6.07
2023-02-04T06:51:41.144Z,6.06
2023-02-04T06:53:59.545Z,6.04
2023-02-04T06:56:16.594Z,6.03
2023-02-04T06:58:34.299Z,6.01
2023-02-04T07:00:52.280Z,6.00
2023-02-04T07:03:09.307Z,5.99
2023-02-04T07:05:26.290Z,6.05
2023-02-04T07:07:43.614Z,6.08
2023-02-04T07:10:01.911Z,6.07
2023-02-04T07:12:19.152Z,6.00
2023-02-04T07:14:36.179Z,5.96
2023-02-04T07:16:53.133Z,5.93
2023-02-04T07:19:10.170Z,5.91
2023-02-04T07:21:27.197Z,5.92
2023-02-04T07:23:44.427Z,5.92
2023-02-04T07:26:01.729Z,5.92
2023-02-04T07:28:19.065Z,5.93
2023-02-04T07:30:36.285Z,5.92
2023-02-04T07:32:53.671Z,5.91
2023-02-04T07:35:10.719Z,5.91
2023-02-04T07:37:27.555Z,5.93
2023-02-04T07:39:44.780Z,5.92
2023-02-04T07:42:01.965Z,5.91
2023-02-04T07:44:19.451Z,5.87
2023-02-04T07:46:36.428Z,5.85
2023-02-04T07:48:53.520Z,5.89
2023-02-04T07:51:10.779Z,5.87
2023-02-04T07:53:28.791Z,5.90
2023-02-04T07:55:45.859Z,5.93
2023-02-04T07:58:03.133Z,5.98
2023-02-04T08:00:21.457Z,5.94
2023-02-04T08:02:38.517Z,6.00
2023-02-04T08:04:55.875Z,6.01
2023-02-04T08:07:13.104Z,5.99
2023-02-04T08:09:30.136Z,5.99
2023-02-04T08:11:47.289Z,6.03
2023-02-04T08:14:05.342Z,6.03
2023-02-04T08:16:22.721Z,6.11
2023-02-04T08:18:39.779Z,6.15
2023-02-04T08:20:56.842Z,6.19
2023-02-04T08:23:13.849Z,6.18
2023-02-04T08:25:31.089Z,6.23
2023-02-04T08:27:48.023Z,6.28
2023-02-04T08:30:05.374Z,6.36
2023-02-04T08:32:22.309Z,6.37
2023-02-04T08:34:40.355Z,6.40
2023-02-04T08:36:57.356Z,6.43
2023-02-04T08:39:14.427Z,6.53
2023-02-04T08:41:32.630Z,6.58
2023-02-04T08:43:49.662Z,6.64
2023-02-04T08:46:06.587Z,6.75
2023-02-04T08:48:23.685Z,6.83
2023-02-04T08:50:40.683Z,6.90
2023-02-04T08:52:57.921Z,7.02
2023-02-04T08:55:15.208Z,7.07
2023-02-04T08:57:32.255Z,7.09
2023-02-04T08:59:50.242Z,7.16
2023-02-04T09:02:07.222Z,7.27
2023-02-04T09:04:24.214Z,7.28
2023-02-04T09:06:41.294Z,7.24
2023-02-04T09:08:58.294Z,7.24
2023-02-04T09:11:15.286Z,7.23
2023-02-04T09:13:32.570Z,7.26
2023-02-04T09:15:49.827Z,7.25
2023-02-04T09:18:06.867Z,7.30
2023-02-04T09:20:24.149Z,7.29
2023-02-04T09:22:41.112Z,7.37
2023-02-04T09:24:58.334Z,7.40
2023-02-04T09:27:15.413Z,7.44
2023-02-04T09:29:32.466Z,7.46
2023-02-04T09:31:49.870Z,7.50
2023-02-04T09:34:08.207Z,7.57
2023-02-04T09:36:25.200Z,7.56
2023-02-04T09:38:42.200Z,7.64
2023-02-04T09:40:59.497Z,7.63
2023-02-04T09:43:16.568Z,7.60
2023-02-04T09:45:34.580Z,7.64
2023-02-04T09:47:51.819Z,7.77
2023-02-04T09:50:09.055Z,7.82
2023-02-04T09:52:26.350Z,7.83
2023-02-04T09:54:43.600Z,7.89
2023-02-04T09:57:01.849Z,7.96
2023-02-04T09:59:19.161Z,8.01
2023-02-04T10:01:36.497Z,8.10
2023-02-04T10:03:53.593Z,8.16
2023-02-04T10:06:10.694Z,8.14
2023-02-04T10:08:28.601Z,8.17
2023-02-04T10:10:45.886Z,8.15
2023-02-04T10:13:03.213Z,8.19
2023-02-04T10:15:20.259Z,8.28
2023-02-04T10:17:38.488Z,8.46
2023-02-04T10:19:55.405Z,8.49
2023-02-04T10:22:12.688Z,8.47
2023-02-04T10:24:29.757Z,8.45
2023-02-04T10:26:47.799Z,8.44
2023-02-04T10:29:04.844Z,8.48
2023-02-04T10:31:22.222Z,8.52
2023-02-04T10:33:40.328Z,8.54
2023-02-04T10:35:58.375Z,8.48
2023-02-04T10:38:15.301Z,8.52
2023-02-04T10:40:32.895Z,8.55
2023-02-04T10:42:49.988Z,8.55
2023-02-04T10:45:07.285Z,8.54
2023-02-04T10:47:25.325Z,8.64
2023-02-04T10:49:42.277Z,8.66
2023-02-04T10:52:00.276Z,8.56
2023-02-04T10:54:17.344Z,8.54
2023-02-04T10:56:34.418Z,8.57
2023-02-04T10:58:52.706Z,8.58
2023-02-04T11:01:09.814Z,8.70
2023-02-04T11:03:26.903Z,8.69
2023-02-04T11:05:43.914Z,8.66
2023-02-04T11:08:01.238Z,8.70
2023-02-04T11:10:19.566Z,8.64
2023-02-04T11:12:36.517Z,8.72
2023-02-04T11:14:53.849Z,8.74
2023-02-04T11:17:10.932Z,8.76
2023-02-04T11:19:28.193Z,8.75
2023-02-04T11:21:45.199Z,8.86
2023-02-04T11:24:02.290Z,8.97
2023-02-04T11:26:19.469Z,8.98
2023-02-04T11:28:36.471Z,9.03
2023-02-04T11:30:54.729Z,8.99
2023-02-04T11:33:12.092Z,9.01
2023-02-04T11:35:30.236Z,8.99
2023-02-04T11:37:47.352Z,8.97
2023-02-04T11:40:04.370Z,8.99
2023-02-04T11:42:21.714Z,8.92
2023-02-04T11:44:38.924Z,8.81
2023-02-04T11:46:55.973Z,8.75
2023-02-04T11:49:12.971Z,8.72
2023-02-04T11:51:30.970Z,8.73
2023-02-04T11:53:47.945Z,8.78
2023-02-04T11:56:05.852Z,8.75
2023-02-04T11:58:23.133Z,8.71
2023-02-04T12:00:41.242Z,8.71
2023-02-04T12:02:58.255Z,8.76
2023-02-04T12:05:15.287Z,8.82
2023-02-04T12:07:33.608Z,8.88
2023-02-04T12:09:50.940Z,9.01
2023-02-04T12:12:08.886Z,9.11
2023-02-04T12:14:26.968Z,9.35
2023-02-04T12:16:44.027Z,9.48
2023-02-04T12:19:01.374Z,9.67
2023-02-04T12:21:18.389Z,9.78
2023-02-04T12:23:35.383Z,9.87
2023-02-04T12:25:53.649Z,9.76
2023-02-04T12:28:10.653Z,9.65
2023-02-04T12:30:28.877Z,9.84
2023-02-04T12:32:46.160Z,9.75
2023-02-04T12:35:04.210Z,9.68
2023-02-04T12:37:21.198Z,9.57
2023-02-04T12:39:39.511Z,9.47
2023-02-04T12:41:56.496Z,9.49
2023-02-04T12:44:14.052Z,9.57
2023-02-04T12:46:31.115Z,9.65
2023-02-04T12:48:48.123Z,9.54
2023-02-04T12:51:06.375Z,9.52
2023-02-04T12:53:23.382Z,9.63
2023-02-04T12:55:40.442Z,9.80
2023-02-04T12:57:57.490Z,9.92
2023-02-04T13:00:14.516Z,9.87
2023-02-04T13:02:31.571Z,10.04
2023-02-04T13:04:48.591Z,9.93
2023-02-04T13:07:05.609Z,9.91
2023-02-04T13:09:22.662Z,10.02
2023-02-04T13:11:40.672Z,10.05
2023-02-04T13:13:57.762Z,10.08
2023-02-04T13:16:14.850Z,10.25
2023-02-04T13:18:32.095Z,10.15
2023-02-04T13:20:49.015Z,10.26
2023-02-04T13:23:06.386Z,10.35
2023-02-04T13:25:23.722Z,10.30
2023-02-04T13:27:40.781Z,10.21
2023-02-04T13:29:58.050Z,10.20
2023-02-04T13:32:15.045Z,10.09
2023-02-04T13:34:34.219Z,10.05
2023-02-04T13:36:51.278Z,9.99
2023-02-04T13:39:08.506Z,9.83
2023-02-04T13:41:25.772Z,9.74
2023-02-04T13:43:43.065Z,9.71
2023-02-04T13:46:00.400Z,9.75
2023-02-04T13:48:17.638Z,9.74
2023-02-04T13:50:37.478Z,9.84
2023-02-04T13:52:54.383Z,9.81
2023-02-04T13:55:11.373Z,9.83
2023-02-04T13:57:28.572Z,9.84
2023-02-04T13:59:45.637Z,9.82
2023-02-04T14:02:02.927Z,9.87
2023-02-04T14:04:21.241Z,9.60
2023-02-04T14:06:39.173Z,9.53
2023-02-04T14:08:56.245Z,9.36
2023-02-04T14:11:13.206Z,9.23
2023-02-04T14:13:31.457Z,9.19
2023-02-04T14:15:49.353Z,9.14
2023-02-04T14:18:07.094Z,9.09
2023-02-04T14:20:24.032Z,9.11
2023-02-04T14:22:40.915Z,9.18
2023-02-04T14:24:58.933Z,9.34
2023-02-04T14:27:16.252Z,9.39
2023-02-04T14:29:33.309Z,9.44
2023-02-04T14:31:51.383Z,9.40
2023-02-04T14:34:08.657Z,9.41
2023-02-04T14:36:25.919Z,9.48
2023-02-04T14:38:43.167Z,9.41
2023-02-04T14:41:01.275Z,9.43
2023-02-04T14:43:18.346Z,9.36
2023-02-04T14:45:35.274Z,9.35
2023-02-04T14:47:52.295Z,9.61
2023-02-04T14:50:10.358Z,9.57
2023-02-04T14:52:27.448Z,9.42
2023-02-04T14:54:44.643Z,9.44
2023-02-04T14:57:01.897Z,9.41
2023-02-04T14:59:19.105Z,9.36
2023-02-04T15:01:36.217Z,9.31
2023-02-04T15:03:53.343Z,9.32
2023-02-04T15:06:11.383Z,9.33
2023-02-04T15:08:28.514Z,9.28
2023-02-04T15:10:46.258Z,9.25
2023-02-04T15:13:03.829Z,9.23
2023-02-04T15:15:21.055Z,9.15
2023-02-04T15:17:38.027Z,9.12
2023-02-04T15:19:57.113Z,9.10
2023-02-04T15:22:14.413Z,9.04
2023-02-04T15:24:31.403Z,8.99
2023-02-04T15:26:48.383Z,8.90
2023-02-04T15:29:06.475Z,8.79
2023-02-04T15:31:23.639Z,8.72
2023-02-04T15:33:42.388Z,8.65
2023-02-04T15:35:59.456Z,8.67
2023-02-04T15:38:16.737Z,8.54
2023-02-04T15:40:34.448Z,8.37
2023-02-04T15:42:51.662Z,8.30
2023-02-04T15:45:08.742Z,8.27
2023-02-04T15:47:26.453Z,8.11
2023-02-04T15:49:43.456Z,8.08
2023-02-04T15:52:01.535Z,8.02
2023-02-04T15:54:18.625Z,7.93
2023-02-04T15:56:35.679Z,7.82
2023-02-04T15:58:53.041Z,7.70
2023-02-04T16:01:10.047Z,7.60
2023-02-04T16:03:27.211Z,7.48
2023-02-04T16:05:44.483Z,7.36
2023-02-04T16:08:01.679Z,7.28
2023-02-04T16:10:18.931Z,7.18
2023-02-04T16:12:37.038Z,7.07
2023-02-04T16:14:54.365Z,6.93
2023-02-04T16:17:11.503Z,6.89
2023-02-04T16:19:28.616Z,6.78
2023-02-04T16:21:45.742Z,6.70
2023-02-04T16:24:03.280Z,6.64
2023-02-04T16:26:20.711Z,6.57
2023-02-04T16:28:38.149Z,6.46
2023-02-04T16:30:55.529Z,6.39
2023-02-04T16:33:12.949Z,6.27
2023-02-04T16:35:30.319Z,6.22
2023-02-04T16:37:47.358Z,6.13
2023-02-04T16:40:04.472Z,6.07
2023-02-04T16:42:23.875Z,5.99
2023-02-04T16:44:40.961Z,5.94
2023-02-04T16:46:58.284Z,5.86
2023-02-04T16:49:15.584Z,5.78
2023-02-04T16:51:32.580Z,5.67
2023-02-04T16:53:49.710Z,5.64
2023-02-04T16:56:06.777Z,5.57
2023-02-04T16:58:23.886Z,5.50
2023-02-04T17:00:40.969Z,5.44
2023-02-04T17:02:58.370Z,5.39
2023-02-04T17:05:15.680Z,5.33
2023-02-04T17:07:32.756Z,5.27
2023-02-04T17:09:49.742Z,5.21
2023-02-04T17:12:06.684Z,5.17
2023-02-04T17:14:24.996Z,5.15
2023-02-04T17:16:42.375Z,5.10
2023-02-04T17:18:59.718Z,5.05
2023-02-04T17:21:18.066Z,4.97
2023-02-04T17:23:35.432Z,4.94
2023-02-04T17:25:52.819Z,4.90
2023-02-04T17:28:09.878Z,4.85
2023-02-04T17:30:28.412Z,4.80
2023-02-04T17:32:46.432Z,4.77
2023-02-04T17:35:03.428Z,4.76
2023-02-04T17:37:20.312Z,4.75
2023-02-04T17:39:38.648Z,4.72
2023-02-04T17:41:56.691Z,4.73
2023-02-04T17:44:14.028Z,4.77
2023-02-04T17:46:31.582Z,4.77
2023-02-04T17:48:48.868Z,4.74
2023-02-04T17:51:06.268Z,4.71
2023-02-04T17:53:24.566Z,4.67
2023-02-04T17:55:41.610Z,4.63
2023-02-04T17:57:58.591Z,4.60
2023-02-04T18:00:16.710Z,4.57
2023-02-04T18:02:34.189Z,4.60
2023-02-04T18:04:52.015Z,4.57
2023-02-04T18:07:09.356Z,4.52
2023-02-04T18:09:26.468Z,4.49
2023-02-04T18:11:44.501Z,4.46
2023-02-04T18:14:01.406Z,4.43
2023-02-04T18:16:18.487Z,4.42
2023-02-04T18:18:36.881Z,4.36
2023-02-04T18:20:53.949Z,4.34
2023-02-04T18:23:10.921Z,4.30
2023-02-04T18:25:28.306Z,4.32
2023-02-04T18:27:45.654Z,4.23
2023-02-04T18:30:02.761Z,4.16
2023-02-04T18:32:21.066Z,4.10
2023-02-04T18:34:38.166Z,4.07
2023-02-04T18:36:55.551Z,4.02
2023-02-04T18:39:12.753Z,3.97
2023-02-04T18:41:30.061Z,3.99
2023-02-04T18:43:47.377Z,3.94
2023-02-04T18:46:04.451Z,3.88
2023-02-04T18:48:21.797Z,3.84
2023-02-04T18:50:39.355Z,3.79
2023-02-04T18:52:57.712Z,3.77
2023-02-04T18:55:14.924Z,3.72
2023-02-04T18:57:31.946Z,3.70
2023-02-04T18:59:49.258Z,3.66
2023-02-04T19:02:07.583Z,3.62
2023-02-04T19:04:24.649Z,3.60
2023-02-04T19:06:42.701Z,3.55
2023-02-04T19:08:59.731Z,3.49
2023-02-04T19:11:17.118Z,3.46
2023-02-04T19:13:34.199Z,3.45
2023-02-04T19:15:51.252Z,3.42
2023-02-04T19:18:08.525Z,3.39
2023-02-04T19:20:25.874Z,3.41
2023-02-04T19:22:43.154Z,3.31
2023-02-04T19:25:00.124Z,3.26
2023-02-04T19:27:17.059Z,3.22
2023-02-04T19:29:34.200Z,3.23
2023-02-04T19:31:51.213Z,3.18
2023-02-04T19:34:08.447Z,3.17
2023-02-04T19:36:25.508Z,3.13
2023-02-04T19:38:42.767Z,3.08
2023-02-04T19:41:00.016Z,3.07
2023-02-04T19:43:17.394Z,3.03
2023-02-04T19:45:34.693Z,2.99
2023-02-04T19:47:51.934Z,2.93
2023-02-04T19:50:08.944Z,2.90
2023-02-04T19:52:26.235Z,2.85
2023-02-04T19:54:43.366Z,2.79
2023-02-04T19:57:01.472Z,2.78
2023-02-04T19:59:18.754Z,2.76
2023-02-04T20:01:36.058Z,2.75
2023-02-04T20:03:53.150Z,2.73
2023-02-04T20:06:10.509Z,2.75
2023-02-04T20:08:28.538Z,2.84
2023-02-04T20:10:45.664Z,2.86
2023-02-04T20:13:03.528Z,2.85
2023-02-04T20:15:20.738Z,2.86
2023-02-04T20:17:38.000Z,2.83
2023-02-04T20:19:54.939Z,2.93
2023-02-04T20:22:11.962Z,2.96
2023-02-04T20:24:29.296Z,2.92
2023-02-04T20:26:49.679Z,2.94
2023-02-04T20:29:06.994Z,2.97
2023-02-04T20:31:23.984Z,3.00
2023-02-04T20:33:41.109Z,3.00
2023-02-04T20:35:58.063Z,3.00
2023-02-04T20:38:15.128Z,2.97
2023-02-04T20:40:32.326Z,2.98
2023-02-04T20:42:49.847Z,2.93
2023-02-04T20:45:06.923Z,2.89
2023-02-04T20:47:24.327Z,2.90
2023-02-04T20:49:41.406Z,2.89
2023-02-04T20:51:58.528Z,2.91
2023-02-04T20:54:16.880Z,2.87
2023-02-04T20:56:34.193Z,2.94
2023-02-04T20:58:51.497Z,2.96
2023-02-04T21:01:08.918Z,2.95
2023-02-04T21:03:26.362Z,2.98
2023-02-04T21:05:43.193Z,2.99
2023-02-04T21:08:00.172Z,2.99
2023-02-04T21:10:17.267Z,3.03
2023-02-04T21:12:34.465Z,3.02
2023-02-04T21:14:51.594Z,3.06
2023-02-04T21:17:09.667Z,3.07
2023-02-04T21:19:26.797Z,3.08
2023-02-04T21:21:43.846Z,3.10
2023-02-04T21:24:01.149Z,3.14
2023-02-04T21:26:18.251Z,3.14
2023-02-04T21:28:35.392Z,3.16
2023-02-04T21:30:52.492Z,3.25
2023-02-04T21:33:09.522Z,3.32
2023-02-04T21:35:26.978Z,3.38
2023-02-04T21:37:44.422Z,3.38
2023-02-04T21:40:01.936Z,3.37
2023-02-04T21:42:19.098Z,3.32
2023-02-04T21:44:37.502Z,3.33
2023-02-04T21:46:54.618Z,3.33
2023-02-04T21:49:11.654Z,3.31
2023-02-04T21:51:28.896Z,3.32
2023-02-04T21:53:46.161Z,3.31
2023-02-04T21:56:03.329Z,3.40
2023-02-04T21:58:20.565Z,3.39
2023-02-04T22:00:37.632Z,3.40
2023-02-04T22:02:54.905Z,3.39
2023-02-04T22:05:12.232Z,3.44
2023-02-04T22:07:29.550Z,3.48
2023-02-04T22:09:46.921Z,3.51
2023-02-04T22:12:04.971Z,3.51
2023-02-04T22:14:22.704Z,3.49
2023-02-04T22:16:39.816Z,3.49
2023-02-04T22:18:57.141Z,3.53
2023-02-04T22:21:14.168Z,3.58
2023-02-04T22:23:31.235Z,3.61
2023-02-04T22:25:49.289Z,3.61
2023-02-04T22:28:06.614Z,3.58
2023-02-04T22:30:23.579Z,3.56
2023-02-04T22:32:40.574Z,3.56
2023-02-04T22:34:58.573Z,3.55
2023-02-04T22:37:15.519Z,3.59
2023-02-04T22:39:32.869Z,3.59
2023-02-04T22:41:49.998Z,3.62
2023-02-04T22:44:06.950Z,3.66
2023-02-04T22:46:23.988Z,3.63
2023-02-04T22:48:42.005Z,3.63
2023-02-04T22:50:59.226Z,3.57
2023-02-04T22:53:16.733Z,3.58
2023-02-04T22:55:33.992Z,3.65
2023-02-04T22:57:52.535Z,3.68
2023-02-04T23:00:09.839Z,3.67
2023-02-04T23:02:26.967Z,3.64
2023-02-04T23:04:44.239Z,3.63
2023-02-04T23:07:01.182Z,3.69
2023-02-04T23:09:18.911Z,3.75
2023-02-04T23:11:36.945Z,3.71
2023-02-04T23:13:53.872Z,3.73
2023-02-04T23:16:10.993Z,3.70
2023-02-04T23:18:27.998Z,3.73
2023-02-04T23:20:44.996Z,3.74
2023-02-04T23:23:02.205Z,3.72
2023-02-04T23:25:19.190Z,3.72
2023-02-04T23:27:36.979Z,3.73
2023-02-04T23:29:55.007Z,3.74
2023-02-04T23:32:11.872Z,3.76
2023-02-04T23:34:30.198Z,3.72
2023-02-04T23:36:47.479Z,3.73
2023-02-04T23:39:05.325Z,3.69
2023-02-04T23:41:23.367Z,3.70
2023-02-04T23:43:40.655Z,3.75
2023-02-04T23:45:57.792Z,3.77
2023-02-04T23:48:15.821Z,3.85
2023-02-04T23:50:33.070Z,3.84
2023-02-04T23:52:50.346Z,3.84
2023-02-04T23:55:07.388Z,3.89
2023-02-04T23:57:24.693Z,3.91
2023-02-04T23:59:42.934Z,3.85
